createdAt,value
2023-07-02T00:00:17.001Z,5.20
2023-07-02T00:02:47.683Z,4.75
2023-07-02T00:05:15.272Z,5.20
2023-07-02T00:07:42.913Z,5.07
2023-07-02T00:10:11.991Z,4.60
2023-07-02T00:12:39.569Z,4.40
2023-07-02T00:15:07.418Z,4.97
2023-07-02T00:17:35.322Z,5.00
2023-07-02T00:20:10.067Z,5.28
2023-07-02T00:22:37.952Z,5.03
2023-07-02T00:25:05.584Z,4.33
2023-07-02T00:27:33.333Z,4.53
2023-07-02T00:30:01.212Z,4.80
2023-07-02T00:32:28.838Z,4.15
2023-07-02T00:34:56.410Z,5.03
2023-07-02T00:37:24.235Z,5.00
2023-07-02T00:39:51.819Z,5.00
2023-07-02T00:42:19.498Z,4.45
2023-07-02T00:44:47.515Z,4.18
2023-07-02T00:47:15.110Z,4.43
2023-07-02T00:49:42.673Z,4.70
2023-07-02T00:52:11.317Z,4.97
2023-07-02T00:54:38.829Z,4.50
2023-07-02T00:57:07.172Z,4.20
2023-07-02T00:59:36.929Z,4.55
2023-07-02T01:02:06.341Z,4.97
2023-07-02T01:04:34.239Z,4.90
2023-07-02T01:07:02.676Z,4.68
2023-07-02T01:09:30.253Z,4.37
2023-07-02T01:12:05.064Z,4.82
2023-07-02T01:14:45.106Z,5.10
2023-07-02T01:17:13.051Z,4.53
2023-07-02T01:19:54.407Z,4.87
2023-07-02T01:22:24.267Z,4.62
2023-07-02T01:24:52.720Z,5.12
2023-07-02T01:27:21.633Z,4.60
2023-07-02T01:29:53.439Z,5.22
2023-07-02T01:32:22.111Z,4.93
2023-07-02T01:34:54.512Z,5.12
2023-07-02T01:37:22.884Z,4.57
2023-07-02T01:39:50.562Z,4.50
2023-07-02T01:42:20.330Z,5.25
2023-07-02T01:44:50.703Z,4.95
2023-07-02T01:47:19.032Z,5.00
2023-07-02T01:49:46.893Z,5.18
2023-07-02T01:52:14.830Z,5.23
2023-07-02T01:54:42.544Z,4.85
2023-07-02T01:57:10.451Z,5.82
2023-07-02T01:59:39.046Z,5.28
2023-07-02T02:02:06.566Z,4.90
2023-07-02T02:04:37.305Z,5.97
2023-07-02T02:07:04.880Z,5.47
2023-07-02T02:09:33.729Z,4.78
2023-07-02T02:12:01.790Z,5.65
2023-07-02T02:14:29.350Z,5.57
2023-07-02T02:16:58.556Z,5.00
2023-07-02T02:19:26.348Z,5.93
2023-07-02T02:21:54.058Z,5.78
2023-07-02T02:24:21.936Z,5.60
2023-07-02T02:26:49.503Z,6.12
2023-07-02T02:29:17.087Z,5.57
2023-07-02T02:31:45.705Z,5.53
2023-07-02T02:34:13.663Z,5.07
2023-07-02T02:36:41.640Z,5.95
2023-07-02T02:39:09.528Z,5.45
2023-07-02T02:41:37.161Z,5.33
2023-07-02T02:44:04.950Z,5.28
2023-07-02T02:46:32.841Z,5.43
2023-07-02T02:49:00.407Z,5.50
2023-07-02T02:51:28.019Z,5.50
2023-07-02T02:53:55.875Z,5.10
2023-07-02T02:56:23.464Z,5.65
2023-07-02T02:58:51.021Z,5.53
2023-07-02T03:01:19.140Z,5.18
2023-07-02T03:03:47.166Z,5.60
2023-07-02T03:06:16.545Z,5.60
2023-07-02T03:08:44.684Z,5.35
2023-07-02T03:11:12.233Z,5.57
2023-07-02T03:13:39.889Z,5.60
2023-07-02T03:16:08.084Z,5.82
2023-07-02T03:18:36.386Z,4.97
2023-07-02T03:21:03.938Z,5.35
2023-07-02T03:23:31.795Z,5.87
2023-07-02T03:25:59.337Z,6.00
2023-07-02T03:28:26.907Z,6.00
2023-07-02T03:30:54.790Z,6.00
2023-07-02T03:33:22.386Z,6.30
2023-07-02T03:35:49.995Z,7.80
2023-07-02T03:38:17.920Z,7.15
2023-07-02T03:40:45.823Z,7.05
2023-07-02T03:43:13.715Z,7.13
2023-07-02T03:45:41.523Z,7.43
2023-07-02T03:48:09.123Z,7.25
2023-07-02T03:50:36.764Z,7.40
2023-07-02T03:53:04.883Z,7.68
2023-07-02T03:55:32.437Z,7.60
2023-07-02T03:57:59.966Z,6.95
2023-07-02T04:00:27.848Z,7.28
2023-07-02T04:02:55.850Z,7.53
2023-07-02T04:05:23.528Z,7.70
2023-07-02T04:07:51.126Z,7.30
2023-07-02T04:10:19.039Z,7.35
2023-07-02T04:12:46.618Z,7.45
2023-07-02T04:15:14.154Z,6.93
2023-07-02T04:17:42.039Z,7.45
2023-07-02T04:20:11.280Z,7.43
2023-07-02T04:22:39.266Z,7.22
2023-07-02T04:25:17.440Z,7.25
2023-07-02T04:27:52.201Z,6.70
2023-07-02T04:30:20.277Z,7.22
2023-07-02T04:32:48.367Z,6.57
2023-07-02T04:35:15.977Z,6.30
2023-07-02T04:37:44.180Z,6.65
2023-07-02T04:40:12.134Z,6.32
2023-07-02T04:42:40.571Z,6.50
2023-07-02T04:45:09.632Z,6.20
2023-07-02T04:47:37.385Z,6.68
2023-07-02T04:50:07.001Z,6.70
2023-07-02T04:52:35.046Z,6.47
2023-07-02T04:55:04.289Z,6.32
2023-07-02T04:57:32.206Z,5.87
2023-07-02T05:00:00.045Z,5.85
2023-07-02T05:02:27.743Z,5.85
2023-07-02T05:04:55.566Z,5.53
2023-07-02T05:07:23.622Z,5.68
2023-07-02T05:09:53.454Z,5.13
2023-07-02T05:12:21.128Z,5.40
2023-07-02T05:14:48.991Z,5.53
2023-07-02T05:17:16.530Z,5.10
2023-07-02T05:19:44.124Z,4.60
2023-07-02T05:22:11.973Z,5.00
2023-07-02T05:24:41.772Z,4.68
2023-07-02T05:27:09.305Z,5.78
2023-07-02T05:29:37.170Z,5.30
2023-07-02T05:32:05.115Z,4.93
2023-07-02T05:34:33.729Z,5.50
2023-07-02T05:37:01.816Z,4.68
2023-07-02T05:39:29.444Z,4.50
2023-07-02T05:41:57.682Z,4.57
2023-07-02T05:44:25.496Z,4.55
2023-07-02T05:46:53.069Z,4.13
2023-07-02T05:49:20.626Z,3.90
2023-07-02T05:51:48.655Z,3.97
2023-07-02T05:54:16.180Z,4.30
2023-07-02T05:56:43.861Z,4.82
2023-07-02T05:59:12.539Z,4.43
2023-07-02T06:01:40.119Z,4.65
2023-07-02T06:04:08.123Z,4.68
2023-07-02T06:06:35.758Z,4.65
2023-07-02T06:09:04.080Z,3.97
2023-07-02T06:11:31.900Z,3.20
2023-07-02T06:13:59.527Z,3.55
2023-07-02T06:16:27.974Z,4.03
2023-07-02T06:18:56.022Z,4.20
2023-07-02T06:21:24.537Z,3.83
2023-07-02T06:23:52.103Z,4.17
2023-07-02T06:26:19.990Z,3.65
2023-07-02T06:28:47.634Z,3.42
2023-07-02T06:31:15.233Z,3.78
2023-07-02T06:33:43.346Z,4.05
2023-07-02T06:36:13.313Z,3.87
2023-07-02T06:38:41.958Z,3.30
2023-07-02T06:41:09.986Z,3.40
2023-07-02T06:43:37.711Z,3.62
2023-07-02T06:46:05.395Z,3.37
2023-07-02T06:48:34.057Z,3.30
2023-07-02T06:51:01.699Z,2.80
2023-07-02T06:53:29.311Z,3.22
2023-07-02T06:55:57.187Z,3.62
2023-07-02T06:58:24.809Z,3.17
2023-07-02T07:00:52.688Z,3.00
2023-07-02T07:03:20.680Z,3.42
2023-07-02T07:05:48.356Z,3.45
2023-07-02T07:08:15.913Z,3.10
2023-07-02T07:10:43.798Z,3.53
2023-07-02T07:13:11.956Z,3.20
2023-07-02T07:15:40.228Z,3.42
2023-07-02T07:18:10.075Z,3.28
2023-07-02T07:20:39.825Z,3.87
2023-07-02T07:23:07.373Z,3.70
2023-07-02T07:25:35.164Z,3.30
2023-07-02T07:28:02.749Z,3.22
2023-07-02T07:30:32.623Z,3.50
2023-07-02T07:33:01.460Z,2.97
2023-07-02T07:35:29.110Z,3.40
2023-07-02T07:37:56.763Z,3.63
2023-07-02T07:40:24.675Z,3.80
2023-07-02T07:42:52.203Z,4.05
2023-07-02T07:45:19.715Z,3.92
2023-07-02T07:47:47.780Z,4.00
2023-07-02T07:50:15.371Z,3.63
2023-07-02T07:52:44.132Z,3.00
2023-07-02T07:55:12.114Z,3.60
2023-07-02T07:57:39.837Z,3.40
2023-07-02T08:00:13.825Z,3.30
2023-07-02T08:02:45.055Z,3.67
2023-07-02T08:05:12.905Z,3.20
2023-07-02T08:07:43.844Z,3.35
2023-07-02T08:10:11.679Z,4.03
2023-07-02T08:12:39.641Z,3.70
2023-07-02T08:15:07.788Z,3.70
2023-07-02T08:17:35.752Z,3.70
2023-07-02T08:20:05.534Z,3.45
2023-07-02T08:22:33.119Z,3.60
2023-07-02T08:25:00.649Z,3.67
2023-07-02T08:27:28.532Z,3.67
2023-07-02T08:29:56.127Z,3.45
2023-07-02T08:32:24.803Z,3.87
2023-07-02T08:34:53.695Z,3.97
2023-07-02T08:37:22.077Z,3.53
2023-07-02T08:39:52.622Z,3.70
2023-07-02T08:42:20.832Z,3.67
2023-07-02T08:44:49.197Z,3.65
2023-07-02T08:47:17.010Z,4.30
2023-07-02T08:49:49.725Z,3.95
2023-07-02T08:52:17.430Z,3.50
2023-07-02T08:54:45.307Z,3.95
2023-07-02T08:57:12.825Z,3.72
2023-07-02T08:59:40.426Z,3.60
2023-07-02T09:02:08.315Z,3.78
2023-07-02T09:04:35.995Z,3.67
2023-07-02T09:07:07.854Z,3.65
2023-07-02T09:09:49.240Z,4.03
2023-07-02T09:12:27.238Z,3.80
2023-07-02T09:15:07.615Z,3.72
2023-07-02T09:17:37.619Z,3.77
2023-07-02T09:20:10.094Z,3.33
2023-07-02T09:22:38.524Z,4.18
2023-07-02T09:25:06.724Z,3.80
2023-07-02T09:27:43.151Z,3.72
2023-07-02T09:30:19.320Z,3.47
2023-07-02T09:32:47.556Z,3.70
2023-07-02T09:35:15.806Z,3.65
2023-07-02T09:37:45.144Z,3.83
2023-07-02T09:40:13.612Z,3.60
2023-07-02T09:42:43.632Z,3.67
2023-07-02T09:45:12.092Z,3.72
2023-07-02T09:47:47.613Z,3.90
2023-07-02T09:50:17.301Z,3.83
2023-07-02T09:52:47.399Z,4.50
2023-07-02T09:55:16.264Z,3.83
2023-07-02T09:57:47.540Z,4.10
2023-07-02T10:00:16.553Z,4.00
2023-07-02T10:02:50.670Z,3.97
2023-07-02T10:05:47.479Z,4.25
2023-07-02T10:08:22.692Z,3.80
2023-07-02T10:10:50.803Z,4.32
2023-07-02T10:13:29.261Z,4.60
2023-07-02T10:16:06.824Z,4.35
2023-07-02T10:18:35.645Z,4.07
2023-07-02T10:21:15.918Z,4.57
2023-07-02T10:23:43.862Z,4.30
2023-07-02T10:26:18.389Z,4.25
2023-07-02T10:29:00.176Z,4.53
2023-07-02T10:31:27.875Z,3.95
2023-07-02T10:33:56.508Z,3.87
2023-07-02T10:36:25.856Z,4.22
2023-07-02T10:38:53.536Z,4.70
2023-07-02T10:41:30.638Z,4.20
2023-07-02T10:44:18.447Z,4.22
2023-07-02T10:46:50.392Z,3.97
2023-07-02T10:49:19.303Z,4.03
2023-07-02T10:51:58.374Z,4.25
2023-07-02T10:54:25.929Z,3.80
2023-07-02T10:56:59.982Z,4.05
2023-07-02T10:59:27.518Z,4.03
2023-07-02T11:01:57.056Z,4.10
2023-07-02T11:04:25.057Z,4.60
2023-07-02T11:06:52.679Z,4.68
2023-07-02T11:09:22.016Z,4.68
2023-07-02T11:11:57.401Z,3.43
2023-07-02T11:14:35.419Z,4.60
2023-07-02T11:17:07.727Z,4.53
2023-07-02T11:19:36.373Z,4.40
2023-07-02T11:22:04.319Z,4.57
2023-07-02T11:24:36.707Z,4.17
2023-07-02T11:27:08.482Z,4.68
2023-07-02T11:29:37.178Z,4.90
2023-07-02T11:32:12.630Z,4.72
2023-07-02T11:34:41.097Z,4.78
2023-07-02T11:37:09.034Z,4.70
2023-07-02T11:39:36.592Z,4.22
2023-07-02T11:42:04.284Z,4.90
2023-07-02T11:44:32.132Z,4.32
2023-07-02T11:46:59.818Z,4.43
2023-07-02T11:49:27.463Z,4.90
2023-07-02T11:51:55.401Z,4.10
2023-07-02T11:54:23.024Z,4.05
2023-07-02T11:56:50.665Z,4.25
2023-07-02T11:59:19.307Z,4.30
2023-07-02T12:01:46.913Z,4.03
2023-07-02T12:04:15.511Z,4.22
2023-07-02T12:06:43.205Z,4.22
2023-07-02T12:09:11.167Z,5.85
2023-07-02T12:11:39.996Z,5.78
2023-07-02T12:14:07.547Z,7.23
2023-07-02T12:16:35.170Z,6.55
2023-07-02T12:19:03.092Z,4.78
2023-07-02T12:21:30.621Z,3.50
2023-07-02T12:23:58.183Z,3.80
2023-07-02T12:26:26.100Z,3.87
2023-07-02T12:28:53.646Z,4.20
2023-07-02T12:31:21.235Z,4.32
2023-07-02T12:33:49.125Z,3.60
2023-07-02T12:36:16.683Z,3.33
2023-07-02T12:38:44.294Z,3.60
2023-07-02T12:41:12.142Z,2.42
2023-07-02T12:43:39.713Z,3.05
2023-07-02T12:46:08.112Z,2.97
2023-07-02T12:48:36.046Z,2.95
2023-07-02T12:51:03.790Z,2.93
2023-07-02T12:53:31.403Z,3.00
2023-07-02T12:55:59.235Z,2.50
2023-07-02T12:58:26.747Z,3.40
2023-07-02T13:00:56.227Z,2.87
2023-07-02T13:03:27.143Z,2.60
2023-07-02T13:05:54.801Z,3.17
2023-07-02T13:08:22.608Z,2.42
2023-07-02T13:10:50.486Z,2.85
2023-07-02T13:13:23.257Z,3.67
2023-07-02T13:15:52.219Z,2.90
2023-07-02T13:18:21.453Z,2.95
2023-07-02T13:20:49.026Z,2.85
2023-07-02T13:23:16.876Z,3.12
2023-07-02T13:25:44.389Z,2.90
2023-07-02T13:28:11.988Z,2.60
2023-07-02T13:30:39.862Z,2.90
2023-07-02T13:33:07.432Z,3.00
2023-07-02T13:35:35.118Z,3.12
2023-07-02T13:38:05.185Z,3.22
2023-07-02T13:40:32.808Z,2.93
2023-07-02T13:43:00.379Z,2.50
2023-07-02T13:45:28.189Z,3.20
2023-07-02T13:47:55.771Z,3.03
2023-07-02T13:50:23.398Z,3.08
2023-07-02T13:52:51.270Z,2.43
2023-07-02T13:55:18.875Z,3.15
2023-07-02T13:57:46.454Z,3.12
2023-07-02T14:00:14.823Z,2.58
2023-07-02T14:02:42.765Z,2.55
2023-07-02T14:05:10.597Z,2.20
2023-07-02T14:07:38.132Z,3.03
2023-07-02T14:10:06.598Z,3.10
2023-07-02T14:12:34.119Z,2.37
2023-07-02T14:15:01.704Z,2.50
2023-07-02T14:17:29.571Z,2.40
2023-07-02T14:19:57.124Z,2.75
2023-07-02T14:22:24.889Z,2.90
2023-07-02T14:24:52.814Z,2.37
2023-07-02T14:27:20.364Z,2.83
2023-07-02T14:29:48.674Z,3.00
2023-07-02T14:32:17.316Z,2.83
2023-07-02T14:34:45.164Z,2.92
2023-07-02T14:37:12.973Z,2.58
2023-07-02T14:39:43.760Z,2.92
2023-07-02T14:42:15.672Z,2.03
2023-07-02T14:44:43.551Z,2.55
2023-07-02T14:47:11.129Z,2.75
2023-07-02T14:49:38.859Z,2.70
2023-07-02T14:52:07.123Z,2.55
2023-07-02T14:54:35.398Z,2.57
2023-07-02T14:57:03.038Z,3.03
2023-07-02T14:59:30.927Z,2.55
2023-07-02T15:01:58.505Z,2.47
2023-07-02T15:04:26.238Z,2.78
2023-07-02T15:06:54.173Z,2.60
2023-07-02T15:09:21.828Z,2.78
2023-07-02T15:11:49.426Z,3.20
2023-07-02T15:14:17.295Z,2.67
2023-07-02T15:16:44.918Z,2.90
2023-07-02T15:19:13.848Z,2.57
2023-07-02T15:21:41.674Z,2.75
2023-07-02T15:24:11.356Z,3.20
2023-07-02T15:26:40.087Z,2.45
2023-07-02T15:29:08.041Z,2.33
2023-07-02T15:31:37.663Z,2.20
2023-07-02T15:34:05.292Z,2.80
2023-07-02T15:36:36.826Z,2.70
2023-07-02T15:39:04.984Z,2.67
2023-07-02T15:41:33.189Z,3.08
2023-07-02T15:44:04.374Z,2.80
2023-07-02T15:46:32.218Z,2.50
2023-07-02T15:49:03.477Z,2.67
2023-07-02T15:51:37.797Z,2.40
2023-07-02T15:54:07.910Z,2.95
2023-07-02T15:56:36.130Z,2.50
2023-07-02T15:59:06.489Z,2.78
2023-07-02T16:01:35.702Z,2.72
2023-07-02T16:04:05.619Z,2.25
2023-07-02T16:06:35.297Z,2.42
2023-07-02T16:09:05.266Z,2.23
2023-07-02T16:11:35.684Z,2.25
2023-07-02T16:14:08.932Z,2.37
2023-07-02T16:16:38.921Z,2.80
2023-07-02T16:19:08.445Z,2.70
2023-07-02T16:21:38.192Z,2.87
2023-07-02T16:24:06.036Z,2.55
2023-07-02T16:26:33.948Z,2.60
2023-07-02T16:29:01.569Z,2.62
2023-07-02T16:31:29.189Z,2.37
2023-07-02T16:33:57.065Z,2.13
2023-07-02T16:36:24.586Z,2.00
2023-07-02T16:38:52.165Z,2.53
2023-07-02T16:41:20.108Z,2.45
2023-07-02T16:43:47.728Z,3.20
2023-07-02T16:46:15.373Z,2.53
2023-07-02T16:48:43.335Z,2.67
2023-07-02T16:51:10.873Z,3.30
2023-07-02T16:53:38.508Z,2.55
2023-07-02T16:56:08.132Z,2.90
2023-07-02T16:58:35.723Z,2.70
2023-07-02T17:01:08.999Z,2.87
2023-07-02T17:03:37.181Z,2.53
2023-07-02T17:06:06.979Z,2.60
2023-07-02T17:08:37.639Z,3.10
2023-07-02T17:11:07.154Z,2.37
2023-07-02T17:13:35.258Z,2.42
2023-07-02T17:16:05.062Z,2.20
2023-07-02T17:18:34.323Z,2.80
2023-07-02T17:21:02.155Z,2.53
2023-07-02T17:23:29.829Z,2.33
2023-07-02T17:26:07.526Z,2.80
2023-07-02T17:28:35.398Z,2.58
2023-07-02T17:31:03.642Z,2.40
2023-07-02T17:33:31.319Z,2.40
2023-07-02T17:35:58.901Z,2.47
2023-07-02T17:38:26.802Z,2.47
2023-07-02T17:40:54.335Z,2.67
2023-07-02T17:43:22.013Z,2.45
2023-07-02T17:45:54.712Z,2.58
2023-07-02T17:48:25.000Z,2.20
2023-07-02T17:51:00.502Z,2.20
2023-07-02T17:53:30.370Z,2.92
2023-07-02T17:55:58.365Z,1.92
2023-07-02T17:58:25.957Z,2.72
2023-07-02T18:00:53.750Z,2.43
2023-07-02T18:03:23.040Z,2.70
2023-07-02T18:05:51.210Z,2.42
2023-07-02T18:08:19.247Z,2.15
2023-07-02T18:10:51.230Z,2.50
2023-07-02T18:13:21.358Z,2.40
2023-07-02T18:15:51.979Z,2.60
2023-07-02T18:18:21.370Z,2.62
2023-07-02T18:20:50.627Z,2.45
2023-07-02T18:23:19.059Z,2.10
2023-07-02T18:25:46.749Z,2.20
2023-07-02T18:28:17.900Z,2.40
2023-07-02T18:30:47.172Z,2.10
2023-07-02T18:33:15.950Z,2.17
2023-07-02T18:35:43.707Z,2.00
2023-07-02T18:38:11.240Z,1.90
2023-07-02T18:40:39.766Z,1.90
2023-07-02T18:43:08.042Z,2.17
2023-07-02T18:45:35.804Z,2.40
2023-07-02T18:48:04.760Z,2.35
2023-07-02T18:50:32.488Z,1.87
2023-07-02T18:53:00.764Z,2.28
2023-07-02T18:55:28.672Z,2.80
2023-07-02T18:57:56.287Z,2.42
2023-07-02T19:00:23.908Z,2.40
2023-07-02T19:02:51.859Z,2.30
2023-07-02T19:05:20.950Z,2.53
2023-07-02T19:07:49.507Z,2.37
2023-07-02T19:10:17.584Z,2.17
2023-07-02T19:12:47.100Z,2.10
2023-07-02T19:15:14.671Z,1.83
2023-07-02T19:17:44.945Z,2.25
2023-07-02T19:20:13.057Z,2.20
2023-07-02T19:22:40.606Z,2.00
2023-07-02T19:25:11.587Z,2.05
2023-07-02T19:27:41.066Z,1.90
2023-07-02T19:30:09.502Z,1.92
2023-07-02T19:32:38.299Z,1.98
2023-07-02T19:35:08.102Z,1.70
2023-07-02T19:37:36.691Z,1.98
2023-07-02T19:40:06.128Z,2.00
2023-07-02T19:42:33.970Z,1.98
2023-07-02T19:45:02.249Z,2.15
2023-07-02T19:47:31.410Z,1.55
2023-07-02T19:50:00.814Z,1.85
2023-07-02T19:52:29.566Z,1.30
2023-07-02T19:55:01.168Z,1.55
2023-07-02T19:57:28.970Z,2.05
2023-07-02T19:59:56.729Z,1.50
2023-07-02T20:02:24.506Z,1.90
2023-07-02T20:05:01.734Z,1.80
2023-07-02T20:07:29.824Z,1.67
2023-07-02T20:09:57.938Z,1.45
2023-07-02T20:12:29.503Z,1.58
2023-07-02T20:14:58.850Z,1.50
2023-07-02T20:17:29.660Z,1.43
2023-07-02T20:19:59.879Z,1.30
2023-07-02T20:22:28.188Z,1.52
2023-07-02T20:25:03.885Z,1.40
2023-07-02T20:27:36.004Z,1.58
2023-07-02T20:30:04.152Z,1.33
2023-07-02T20:32:31.812Z,1.58
2023-07-02T20:34:59.829Z,1.73
2023-07-02T20:37:27.711Z,1.50
2023-07-02T20:39:55.406Z,1.40
2023-07-02T20:42:23.280Z,1.27
2023-07-02T20:44:51.204Z,1.35
2023-07-02T20:47:22.308Z,1.80
2023-07-02T20:49:51.335Z,1.27
2023-07-02T20:52:25.138Z,1.40
2023-07-02T20:54:54.599Z,1.40
2023-07-02T20:57:23.277Z,1.40
2023-07-02T20:59:51.723Z,1.45
2023-07-02T21:02:20.704Z,1.50
2023-07-02T21:04:50.171Z,3.33
2023-07-02T21:07:17.857Z,1.13
2023-07-02T21:09:45.762Z,1.27
2023-07-02T21:12:13.358Z,1.83
2023-07-02T21:14:40.968Z,1.80
2023-07-02T21:17:11.806Z,1.60
2023-07-02T21:19:39.368Z,1.60
2023-07-02T21:22:06.909Z,1.90
2023-07-02T21:24:35.716Z,1.48
2023-07-02T21:27:03.724Z,1.02
2023-07-02T21:29:31.596Z,1.60
2023-07-02T21:31:59.510Z,1.40
2023-07-02T21:34:27.069Z,1.40
2023-07-02T21:36:54.669Z,1.67
2023-07-02T21:39:22.541Z,1.62
2023-07-02T21:41:50.116Z,1.48
2023-07-02T21:44:19.390Z,1.67
2023-07-02T21:46:47.348Z,1.85
2023-07-02T21:49:14.991Z,1.30
2023-07-02T21:51:42.536Z,1.60
2023-07-02T21:54:10.360Z,1.60
2023-07-02T21:56:38.296Z,1.80
2023-07-02T21:59:05.837Z,1.67
2023-07-02T22:01:33.756Z,1.58
2023-07-02T22:04:01.613Z,1.33
2023-07-02T22:06:29.121Z,1.67
2023-07-02T22:08:56.687Z,1.57
2023-07-02T22:11:26.007Z,1.55
2023-07-02T22:13:53.618Z,1.67
2023-07-02T22:16:21.297Z,1.95
2023-07-02T22:18:49.241Z,1.50
2023-07-02T22:21:17.873Z,1.60
2023-07-02T22:23:49.186Z,1.60
2023-07-02T22:26:17.151Z,1.50
2023-07-02T22:28:44.833Z,1.87
2023-07-02T22:31:12.408Z,1.73
2023-07-02T22:33:40.390Z,1.50
2023-07-02T22:36:08.905Z,1.67
2023-07-02T22:38:36.829Z,1.90
2023-07-02T22:41:04.653Z,1.80
2023-07-02T22:43:32.168Z,2.00
2023-07-02T22:45:59.756Z,1.70
2023-07-02T22:48:27.637Z,1.80
2023-07-02T22:50:56.318Z,2.00
2023-07-02T22:53:25.203Z,2.25
2023-07-02T22:55:53.184Z,2.00
2023-07-02T22:58:20.929Z,1.97
2023-07-02T23:00:48.447Z,1.90
2023-07-02T23:03:16.403Z,2.03
2023-07-02T23:05:44.082Z,1.92
2023-07-02T23:08:13.188Z,2.08
2023-07-02T23:10:40.985Z,2.03
2023-07-02T23:13:08.666Z,2.03
2023-07-02T23:15:36.276Z,2.20
2023-07-02T23:18:04.167Z,2.05
2023-07-02T23:20:31.719Z,2.45
2023-07-02T23:23:02.795Z,2.17
2023-07-02T23:25:31.311Z,2.42
2023-07-02T23:28:04.195Z,2.15
2023-07-02T23:30:35.155Z,2.00
2023-07-02T23:33:11.045Z,2.03
2023-07-02T23:35:40.036Z,2.17
2023-07-02T23:38:08.738Z,2.20
2023-07-02T23:40:37.015Z,2.00
2023-07-02T23:43:05.341Z,2.20
2023-07-02T23:45:33.017Z,2.10
2023-07-02T23:48:00.625Z,2.30
2023-07-02T23:50:28.604Z,2.25
2023-07-02T23:52:56.298Z,2.40
2023-07-02T23:55:23.880Z,2.60
2023-07-02T23:57:51.804Z,2.47
